Time;durP1;ratioP1;P1;durP2;ratioP2;P2;SDS_P1;SDS_P2;PMS_P1;PMS_P2;Temp;Humidity;BMP_temperature;BMP_pressure;BME280_temperature;BME280_humidity;BME280_pressure;Samples;Min_cycle;Max_cycle;Signal;HPM_P1;HPM_P2
2022/03/14 00:00:18;;;;;;;;;6.67;5.00;;;;;9.16;100.00;101282.41;4989204;28;45272;-79
2022/03/14 00:02:44;;;;;;;;;4.33;2.00;;;;;9.59;100.00;101365.13;4989651;28;45438;-76
2022/03/14 00:05:13;;;;;;;;;3.33;3.33;;;;;8.69;100.00;101217.97;4987659;28;45600;-79
2022/03/14 00:07:38;;;;;;;;;5.00;3.33;;;;;9.38;100.00;101348.16;4986387;28;45413;-77
2022/03/14 00:10:05;;;;;;;;;5.33;3.67;;;;;9.49;100.00;101359.31;4989575;28;45177;-80
2022/03/14 00:12:31;;;;;;;;;12.33;4.33;;;;;9.72;100.00;101416.94;4989601;28;45192;-80
2022/03/14 00:14:59;;;;;;;;;1.33;1.00;;;;;9.71;100.00;101393.47;4988125;28;45446;-78
2022/03/14 00:17:26;;;;;;;;;2.33;2.33;;;;;9.67;100.00;101391.88;4989668;28;45340;-79
2022/03/14 00:19:53;;;;;;;;;7.33;4.00;;;;;9.60;100.00;101380.47;4989366;28;45086;-79
2022/03/14 00:22:19;;;;;;;;;2.00;2.00;;;;;9.75;100.00;101420.38;4988100;28;45204;-79
2022/03/14 00:24:45;;;;;;;;;3.00;3.00;;;;;9.72;100.00;101416.94;4989235;28;45395;-79
2022/03/14 00:27:10;;;;;;;;;2.00;2.00;;;;;9.26;100.00;101356.91;4988765;28;45249;-79
2022/03/14 00:29:36;;;;;;;;;3.33;3.33;;;;;9.75;100.00;101428.53;4983229;28;45299;-80
2022/03/14 00:32:01;;;;;;;;;8.00;4.00;;;;;9.75;100.00;101443.94;4987711;28;45898;-77
2022/03/14 00:34:27;;;;;;;;;4.00;3.00;;;;;9.76;100.00;101457.44;4970516;28;47335;-78
2022/03/14 00:36:53;;;;;;;;;5.00;3.67;;;;;9.78;100.00;101455.53;4988736;28;45098;-79
2022/03/14 00:39:19;;;;;;;;;4.00;2.67;;;;;9.72;100.00;101444.09;4988776;28;45134;-79
2022/03/14 00:41:45;;;;;;;;;3.33;3.00;;;;;9.44;100.00;101407.53;4988627;28;45303;-79
2022/03/14 00:44:12;;;;;;;;;2.67;2.33;;;;;9.42;100.00;101401.28;4970327;28;46314;-80
2022/03/14 00:46:39;;;;;;;;;5.33;3.00;;;;;9.30;100.00;101391.09;4988852;28;45391;-78
2022/03/14 00:49:04;;;;;;;;;2.00;2.00;;;;;8.46;100.00;101252.53;4971043;28;45455;-77
2022/03/14 00:51:29;;;;;;;;;3.00;3.00;;;;;8.65;100.00;101278.72;4986350;28;45039;-78
2022/03/14 00:53:55;;;;;;;;;4.67;4.00;;;;;8.96;100.00;101343.97;4986267;28;45684;-78
2022/03/14 00:56:21;;;;;;;;;3.33;3.33;;;;;9.86;100.00;101482.28;4988289;28;45284;-78
2022/03/14 00:58:46;;;;;;;;;4.33;2.67;;;;;9.83;100.00;101491.47;4988012;28;45212;-78
2022/03/14 01:01:12;;;;;;;;;4.00;3.00;;;;;9.78;100.00;101498.97;4985562;28;45197;-77
2022/03/14 01:03:37;;;;;;;;;5.67;2.00;;;;;9.66;100.00;101477.88;4988018;28;45716;-78
2022/03/14 01:06:03;;;;;;;;;2.00;2.00;;;;;9.76;100.00;101489.13;4985780;28;45227;-77
2022/03/14 01:08:29;;;;;;;;;3.00;2.33;;;;;9.23;100.00;101404.09;4988241;28;45180;-77
2022/03/14 01:10:54;;;;;;;;;4.00;3.00;;;;;9.84;100.00;101511.34;4983960;28;45588;-78
2022/03/14 01:13:20;;;;;;;;;3.00;3.00;;;;;9.49;100.00;101459.75;4987182;28;46184;-80
2022/03/14 01:15:45;;;;;;;;;3.00;3.00;;;;;9.53;100.00;101460.44;4988378;28;45413;-79
2022/03/14 01:18:13;;;;;;;;;2.00;2.00;;;;;9.86;100.00;101531.16;4988581;28;45268;-77
2022/03/14 01:20:39;;;;;;;;;3.00;2.33;;;;;9.51;100.00;101474.09;4985081;28;45533;-77
2022/03/14 01:23:05;;;;;;;;;2.00;1.00;;;;;9.87;100.00;101547.34;4988538;28;45875;-78
2022/03/14 01:25:30;;;;;;;;;3.00;1.33;;;;;9.90;100.00;101540.91;4986340;28;45040;-77
2022/03/14 01:27:56;;;;;;;;;4.00;1.00;;;;;9.73;100.00;101516.44;4987207;28;45308;-78
2022/03/14 01:30:22;;;;;;;;;5.33;1.67;;;;;9.90;100.00;101556.34;4990714;28;45253;-79
2022/03/14 01:32:48;;;;;;;;;4.00;1.00;;;;;9.82;100.00;101541.28;4991836;28;45222;-79
2022/03/14 01:35:16;;;;;;;;;3.33;3.33;;;;;9.59;100.00;101500.88;4989983;28;45181;-79
2022/03/14 01:37:42;;;;;;;;;4.33;3.33;;;;;9.91;100.00;101561.66;4980564;28;45120;-80
2022/03/14 01:40:09;;;;;;;;;1.33;0.67;;;;;9.81;100.00;101544.09;4988854;28;45354;-81
2022/03/14 01:42:34;;;;;;;;;2.33;2.33;;;;;9.92;100.00;101563.44;4986139;28;45564;-79
2022/03/14 01:45:00;;;;;;;;;3.00;3.00;;;;;9.92;100.00;101562.56;4988301;28;45103;-78
2022/03/14 01:47:27;;;;;;;;;2.00;2.00;;;;;9.92;100.00;101567.97;4987416;28;45037;-80
2022/03/14 01:49:53;;;;;;;;;3.00;3.00;;;;;9.75;100.00;101539.84;4986390;28;45323;-81
2022/03/14 01:52:20;;;;;;;;;2.00;1.00;;;;;9.62;100.00;101517.00;4984840;28;46285;-81
2022/03/14 01:54:45;;;;;;;;;3.00;1.67;;;;;9.16;100.00;101432.47;4986182;28;45179;-80
2022/03/14 01:57:13;;;;;;;;;2.67;2.00;;;;;9.85;100.00;101548.41;4986883;28;45109;-78
2022/03/14 01:59:39;;;;;;;;;4.00;2.00;;;;;9.92;100.00;101576.13;4987814;28;45225;-79
2022/03/14 02:02:04;;;;;;;;;1.00;1.00;;;;;9.70;100.00;101541.94;4986337;28;45228;-78
2022/03/14 02:04:30;;;;;;;;;1.67;1.67;;;;;9.67;100.00;101538.47;4987682;28;45154;-80
2022/03/14 02:06:57;;;;;;;;;2.00;2.00;;;;;9.94;100.00;101585.97;4987379;28;45215;-79
2022/03/14 02:09:23;;;;;;;;;2.33;1.67;;;;;9.90;100.00;101567.19;4983304;28;45451;-79
2022/03/14 02:12:04;;;;;;;;;3.33;2.00;;;;;9.03;100.00;101421.38;4982866;28;45406;-80
2022/03/14 02:14:30;;;;;;;;;5.00;1.00;;;;;9.68;100.00;101532.09;4984289;28;45843;-79
2022/03/14 02:16:55;;;;;;;;;2.00;2.00;;;;;9.86;100.00;101569.19;4970076;28;45043;-80
2022/03/14 02:19:21;;;;;;;;;2.33;1.33;;;;;9.67;100.00;101525.78;4983841;28;45232;-80
2022/03/14 02:21:46;;;;;;;;;6.00;3.67;;;;;9.82;100.00;101564.84;4981479;28;45500;-79
2022/03/14 02:24:12;;;;;;;;;4.00;3.33;;;;;9.80;100.00;101567.66;4985434;28;45679;-79
2022/03/14 02:26:41;;;;;;;;;4.00;1.00;;;;;9.90;100.00;101592.50;4987094;28;45237;-79
2022/03/14 02:29:07;;;;;;;;;3.33;1.67;;;;;9.56;100.00;101536.31;4985317;28;45343;-77
2022/03/14 02:31:37;;;;;;;;;2.67;1.00;;;;;9.88;100.00;101592.59;4985369;28;45989;-80
2022/03/14 02:34:03;;;;;;;;;3.00;2.00;;;;;9.70;100.00;101558.22;4987332;28;45426;-81
2022/03/14 02:36:29;;;;;;;;;3.00;1.67;;;;;9.77;100.00;101575.06;4987757;28;45061;-78
2022/03/14 02:38:54;;;;;;;;;2.67;2.00;;;;;9.83;100.00;101591.03;4989312;28;45297;-77
2022/03/14 02:41:22;;;;;;;;;2.00;2.00;;;;;9.82;100.00;101595.59;4989525;28;45585;-79
2022/03/14 02:43:47;;;;;;;;;3.00;2.00;;;;;9.76;100.00;101582.34;4990145;28;45125;-79
2022/03/14 02:46:13;;;;;;;;;2.33;1.00;;;;;9.80;100.00;101597.53;4990979;28;45143;-79
2022/03/14 02:48:40;;;;;;;;;2.00;2.00;;;;;8.36;100.00;101369.53;4990440;28;45246;-79
2022/03/14 02:51:05;;;;;;;;;5.67;3.00;;;;;9.69;100.00;101588.16;4985343;28;45529;-79
2022/03/14 02:53:30;;;;;;;;;3.33;2.33;;;;;9.45;100.00;101561.28;4991036;28;44967;-79
2022/03/14 02:55:56;;;;;;;;;4.33;2.00;;;;;9.63;100.00;101594.78;4990584;28;45326;-78
2022/03/14 02:58:21;;;;;;;;;4.00;3.00;;;;;9.33;100.00;101553.75;4990836;28;45159;-76
2022/03/14 03:00:47;;;;;;;;;3.33;3.33;;;;;8.40;100.00;101407.28;4987587;28;45425;-78
2022/03/14 03:03:13;;;;;;;;;4.00;3.00;;;;;9.72;100.00;101628.72;4989807;28;45371;-76
2022/03/14 03:05:43;;;;;;;;;4.00;2.33;;;;;9.20;100.00;101553.44;4990452;28;45388;-77
2022/03/14 03:08:09;;;;;;;;;1.00;1.00;;;;;9.70;100.00;101642.38;4990575;28;45741;-76
2022/03/14 03:10:34;;;;;;;;;5.33;3.00;;;;;9.47;100.00;101610.03;4989545;28;45134;-78
2022/03/14 03:13:01;;;;;;;;;6.00;4.33;;;;;9.62;100.00;101647.31;4989937;28;45149;-77
2022/03/14 03:15:26;;;;;;;;;3.33;1.67;;;;;9.69;100.00;101661.47;4972846;28;45122;-77
2022/03/14 03:17:52;;;;;;;;;1.00;1.00;;;;;9.11;100.00;101570.16;4989710;28;45180;-76
2022/03/14 03:20:18;;;;;;;;;3.67;3.67;;;;;9.68;100.00;101676.00;4988326;28;45237;-75
2022/03/14 03:22:43;;;;;;;;;3.00;1.00;;;;;9.68;100.00;101692.28;4989242;28;45251;-75
2022/03/14 03:25:09;;;;;;;;;1.67;1.67;;;;;9.38;100.00;101638.53;4990177;28;45170;-77
2022/03/14 03:27:35;;;;;;;;;1.33;1.00;;;;;9.68;100.00;101693.19;4989942;28;45139;-75
2022/03/14 03:30:02;;;;;;;;;3.33;1.33;;;;;9.69;100.00;101689.50;4988074;28;45232;-76
2022/03/14 03:32:28;;;;;;;;;4.00;2.00;;;;;9.49;100.00;101668.75;4981384;28;45119;-79
2022/03/14 03:34:53;;;;;;;;;1.00;1.00;;;;;9.71;100.00;101701.16;4991501;28;45534;-81
2022/03/14 03:37:19;;;;;;;;;2.67;2.67;;;;;9.59;100.00;101682.75;4989356;28;45467;-79
2022/03/14 03:39:44;;;;;;;;;2.33;2.00;;;;;9.71;100.00;101705.72;4988319;28;45284;-80
2022/03/14 03:42:10;;;;;;;;;3.67;2.00;;;;;9.42;100.00;101664.53;4985856;28;45024;-81
2022/03/14 03:44:35;;;;;;;;;5.75;3.50;;;;;9.69;100.00;101713.06;4989268;28;45209;-80
2022/03/14 03:47:02;;;;;;;;;2.00;1.00;;;;;9.42;100.00;101690.81;4989814;28;45213;-80
2022/03/14 03:49:28;;;;;;;;;4.25;1.75;;;;;9.26;100.00;101664.41;4983009;28;45390;-80
2022/03/14 03:51:53;;;;;;;;;1.75;1.75;;;;;9.52;100.00;101708.41;4986086;28;45704;-78
2022/03/14 03:54:19;;;;;;;;;2.75;2.00;;;;;9.09;100.00;101635.34;4990042;28;45147;-80
2022/03/14 03:56:44;;;;;;;;;2.50;2.00;;;;;9.56;100.00;101718.19;4971352;28;45204;-78
2022/03/14 03:59:09;;;;;;;;;2.00;2.00;;;;;9.36;100.00;101692.00;4986684;28;45283;-79
2022/03/14 04:01:35;;;;;;;;;2.50;2.50;;;;;7.99;100.00;101469.63;4987044;28;45314;-80
2022/03/14 04:04:01;;;;;;;;;5.25;3.00;;;;;9.05;100.00;101658.13;4983669;28;45232;-80
2022/03/14 04:06:28;;;;;;;;;1.50;1.50;;;;;8.94;100.00;101643.31;4989640;28;45343;-81
2022/03/14 04:08:55;;;;;;;;;5.00;2.25;;;;;8.76;100.00;101623.34;4986764;28;46309;-80
2022/03/14 04:11:21;;;;;;;;;3.50;3.50;;;;;9.50;100.00;101756.50;4983852;28;45453;-78
2022/03/14 04:13:48;;;;;;;;;3.00;2.00;;;;;9.49;100.00;101765.59;4986983;28;45290;-79
2022/03/14 04:16:16;;;;;;;;;2.00;2.00;;;;;9.48;100.00;101775.56;4988879;28;45118;-78
2022/03/14 04:18:41;;;;;;;;;5.00;2.00;;;;;9.46;100.00;101763.88;4988792;28;45194;-77
2022/03/14 04:21:07;;;;;;;;;6.50;3.25;;;;;8.79;100.00;101661.16;4988850;28;45154;-79
2022/03/14 04:23:32;;;;;;;;;3.50;3.00;;;;;7.84;100.00;101515.44;4989039;28;45429;-79
2022/03/14 04:25:58;;;;;;;;;4.50;3.00;;;;;8.06;100.00;101543.38;4988506;28;45486;-78
2022/03/14 04:28:24;;;;;;;;;3.25;3.25;;;;;9.03;100.00;101718.84;4988990;28;45991;-80
2022/03/14 04:30:49;;;;;;;;;2.75;2.75;;;;;9.20;100.00;101756.94;4988046;28;45376;-80
2022/03/14 04:33:14;;;;;;;;;4.50;2.00;;;;;8.98;100.00;101719.06;4995830;28;45307;-80
2022/03/14 04:35:40;;;;;;;;;6.25;3.75;;;;;9.19;100.00;101749.75;4988856;28;44982;-78
2022/03/14 04:38:07;;;;;;;;;4.25;3.75;;;;;8.99;100.00;101745.22;4988632;28;45605;-79
2022/03/14 04:40:33;;;;;;;;;3.00;3.00;;;;;9.12;100.00;101764.53;4969210;28;45494;-77
2022/03/14 04:43:04;;;;;;;;;4.00;3.00;;;;;9.26;100.00;101804.63;4987728;28;45241;-78
2022/03/14 04:45:29;;;;;;;;;2.50;2.50;;;;;9.25;100.00;101805.56;4988626;28;45157;-78
2022/03/14 04:47:55;;;;;;;;;3.50;3.50;;;;;9.17;100.00;101797.75;4987335;28;45046;-81
2022/03/14 04:50:20;;;;;;;;;5.00;3.00;;;;;9.19;100.00;101817.59;4986936;28;45096;-80
2022/03/14 04:52:46;;;;;;;;;3.50;1.75;;;;;8.90;100.00;101759.19;4987838;28;45097;-80
2022/03/14 04:55:11;;;;;;;;;3.50;2.00;;;;;9.22;100.00;101820.16;4973287;28;45353;-80
2022/03/14 04:57:37;;;;;;;;;4.50;3.75;;;;;9.21;100.00;101821.09;4998833;28;45831;-78
2022/03/14 05:00:07;;;;;;;;;2.25;2.25;;;;;8.88;100.00;101771.94;4988938;28;45129;-78
2022/03/14 05:02:33;;;;;;;;;6.00;2.25;;;;;8.74;100.00;101756.25;4988532;28;45123;-77
2022/03/14 05:04:59;;;;;;;;;6.50;2.75;;;;;9.10;100.00;101823.41;4987697;28;45201;-78
2022/03/14 05:07:25;;;;;;;;;3.75;3.00;;;;;8.15;100.00;101666.66;4988104;28;45694;-76
2022/03/14 05:09:50;;;;;;;;;6.50;4.00;;;;;8.70;100.00;101765.47;4986058;28;45090;-78
2022/03/14 05:12:15;;;;;;;;;3.25;3.00;;;;;9.04;100.00;101827.28;4987490;28;45127;-78
2022/03/14 05:14:41;;;;;;;;;3.00;2.75;;;;;9.09;100.00;101843.34;4985288;28;45252;-76
2022/03/14 05:17:08;;;;;;;;;5.00;3.50;;;;;8.20;100.00;101694.41;4982819;28;46447;-80
2022/03/14 05:19:34;;;;;;;;;4.00;4.00;;;;;9.00;100.00;101849.16;4985615;28;45538;-79
2022/03/14 05:21:59;;;;;;;;;5.00;4.25;;;;;8.69;100.00;101817.06;4986532;28;45233;-77
2022/03/14 05:24:25;;;;;;;;;3.50;3.00;;;;;8.80;100.00;101839.16;4985710;28;45572;-76
2022/03/14 05:26:52;;;;;;;;;3.00;3.00;;;;;7.79;100.00;101680.75;4987499;28;45433;-77
2022/03/14 05:29:18;;;;;;;;;3.50;3.50;;;;;8.44;100.00;101777.41;4986926;28;45156;-79
2022/03/14 05:31:44;;;;;;;;;4.00;3.00;;;;;8.08;100.00;101722.91;4984608;28;45283;-77
2022/03/14 05:34:12;;;;;;;;;5.75;4.00;;;;;8.94;100.00;101874.72;4989981;28;45392;-79
2022/03/14 05:36:39;;;;;;;;;5.25;4.25;;;;;8.93;100.00;101872.97;4989933;28;45894;-79
2022/03/14 05:39:04;;;;;;;;;2.50;2.50;;;;;7.79;100.00;101703.31;4988075;28;45246;-79
2022/03/14 05:41:30;;;;;;;;;7.25;4.75;;;;;8.89;100.00;101881.28;4988523;28;45177;-78
2022/03/14 05:43:55;;;;;;;;;6.25;2.00;;;;;8.84;100.00;101874.22;4987294;28;45201;-77
2022/03/14 05:46:21;;;;;;;;;5.00;4.00;;;;;8.12;100.00;101754.34;4982453;28;45583;-77
2022/03/14 05:48:46;;;;;;;;;5.00;3.25;;;;;8.83;100.00;101882.44;4987441;28;45355;-76
2022/03/14 05:51:12;;;;;;;;;3.75;3.00;;;;;8.57;100.00;101848.28;4986878;28;45106;-76
2022/03/14 05:53:37;;;;;;;;;4.50;3.50;;;;;7.08;100.00;101590.72;4988123;28;45435;-76
2022/03/14 05:56:03;;;;;;;;;3.00;3.00;;;;;8.47;100.00;101844.19;4985002;28;45188;-76
2022/03/14 05:58:29;;;;;;;;;3.00;3.00;;;;;8.60;100.00;101864.41;4986690;28;45537;-76
2022/03/14 06:00:55;;;;;;;;;4.00;3.00;;;;;8.09;100.00;101777.94;4987797;28;45214;-77
2022/03/14 06:03:20;;;;;;;;;3.75;2.75;;;;;8.80;100.00;101904.25;4988130;28;45328;-79
2022/03/14 06:05:49;;;;;;;;;2.75;2.75;;;;;8.54;100.00;101875.50;4988085;28;45222;-76
2022/03/14 06:08:16;;;;;;;;;7.50;3.00;;;;;7.79;100.00;101767.38;4986946;28;45121;-79
2022/03/14 06:10:42;;;;;;;;;4.25;4.25;;;;;7.60;100.00;101728.44;4988209;28;45222;-78
2022/03/14 06:13:08;;;;;;;;;4.00;4.00;;;;;8.22;100.00;101830.69;4962423;28;45437;-79
2022/03/14 06:15:33;;;;;;;;;5.25;3.00;;;;;8.70;100.00;101936.28;4973082;28;48275;-78
2022/03/14 06:17:59;;;;;;;;;2.75;2.75;;;;;8.09;100.00;101814.03;4990088;28;45033;-81
2022/03/14 06:20:24;;;;;;;;;4.50;4.50;;;;;7.38;100.00;101706.75;4991656;28;45586;-80
2022/03/14 06:22:49;;;;;;;;;3.00;3.00;;;;;8.72;100.00;101931.69;4989138;28;46205;-79
2022/03/14 06:25:19;;;;;;;;;10.75;5.00;;;;;7.89;100.00;101792.28;4988491;28;46050;-79
2022/03/14 06:27:45;;;;;;;;;4.75;4.00;;;;;7.25;100.00;101700.94;4989495;28;45269;-77
2022/03/14 06:30:11;;;;;;;;;5.00;5.00;;;;;8.67;100.00;101939.13;4987749;28;45157;-78
2022/03/14 06:32:38;;;;;;;;;4.00;4.00;;;;;8.73;100.00;101947.00;4989878;28;45094;-78
2022/03/14 06:35:06;;;;;;;;;6.75;4.00;;;;;8.72;100.00;101945.25;4990271;28;45217;-78
2022/03/14 06:37:31;;;;;;;;;6.50;5.25;;;;;8.73;100.00;101949.72;4981141;28;45134;-78
2022/03/14 06:39:57;;;;;;;;;9.00;6.00;;;;;8.73;100.00;101970.53;4979897;28;45440;-78
2022/03/14 06:42:23;;;;;;;;;5.75;4.50;;;;;8.67;100.00;101957.19;4984548;28;45548;-78
2022/03/14 06:44:50;;;;;;;;;6.25;3.25;;;;;8.63;100.00;101972.72;4982440;28;45834;-78
2022/03/14 06:47:21;;;;;;;;;5.25;3.50;;;;;8.76;100.00;101983.94;4979457;28;45437;-77
2022/03/14 06:49:46;;;;;;;;;4.00;4.00;;;;;8.77;100.00;101992.03;4981792;28;45675;-77
2022/03/14 06:52:13;;;;;;;;;9.00;6.25;;;;;8.78;100.00;102001.94;4985741;28;45422;-78
2022/03/14 06:54:38;;;;;;;;;3.75;3.75;;;;;8.01;100.00;101865.81;4958837;28;47340;-77
2022/03/14 06:57:08;;;;;;;;;3.75;3.00;;;;;8.55;100.00;101973.00;4983226;28;45453;-77
2022/03/14 06:59:34;;;;;;;;;6.00;5.00;;;;;8.61;100.00;101980.00;4983455;28;45230;-77
2022/03/14 07:02:00;;;;;;;;;5.25;3.50;;;;;8.39;100.00;101946.56;4983593;28;45547;-78
2022/03/14 07:04:27;;;;;;;;;9.75;5.00;;;;;8.88;100.00;102015.13;4987467;28;45177;-79
2022/03/14 07:06:52;;;;;;;;;5.00;5.00;;;;;8.90;100.00;102024.06;4989526;28;45447;-77
2022/03/14 07:09:18;;;;;;;;;7.00;4.75;;;;;8.66;100.00;101977.13;4988707;28;45609;-80
2022/03/14 07:11:43;;;;;;;;;6.25;5.00;;;;;8.61;100.00;101968.28;4988452;28;45606;-78
2022/03/14 07:14:08;;;;;;;;;5.00;4.50;;;;;8.45;100.00;101955.31;4986805;28;46347;-79
2022/03/14 07:16:34;;;;;;;;;8.50;6.50;;;;;8.63;100.00;101979.97;4989082;28;45070;-77
2022/03/14 07:19:03;;;;;;;;;8.00;8.00;;;;;8.83;100.00;102013.47;4989003;28;45869;-77
2022/03/14 07:21:28;;;;;;;;;5.25;5.25;;;;;8.97;100.00;102052.72;4972431;28;45068;-77
2022/03/14 07:23:57;;;;;;;;;9.50;8.00;;;;;8.94;100.00;102050.13;4984925;28;45351;-77
2022/03/14 07:26:24;;;;;;;;;12.00;9.25;;;;;8.66;100.00;102015.94;4971583;28;45419;-78
2022/03/14 07:28:50;;;;;;;;;8.00;6.25;;;;;8.98;100.00;102054.50;4991677;28;45321;-78
2022/03/14 07:31:20;;;;;;;;;8.50;8.50;;;;;8.22;100.00;101918.28;4987005;28;45433;-78
2022/03/14 07:33:45;;;;;;;;;6.75;5.00;;;;;8.98;100.00;102049.97;4983856;28;45933;-76
2022/03/14 07:36:11;;;;;;;;;8.25;6.25;;;;;7.53;100.00;101812.56;4991492;28;45559;-78
2022/03/14 07:38:37;;;;;;;;;8.00;6.25;;;;;9.01;100.00;102070.63;4992180;28;45028;-77
2022/03/14 07:41:02;;;;;;;;;9.00;6.75;;;;;9.01;100.00;102074.22;4987053;28;45573;-78
2022/03/14 07:43:28;;;;;;;;;9.75;9.75;;;;;8.87;100.00;102056.72;4986065;28;45571;-77
2022/03/14 07:45:53;;;;;;;;;10.75;7.75;;;;;8.47;100.00;101991.41;4981476;28;45215;-80
2022/03/14 07:48:18;;;;;;;;;8.75;7.50;;;;;8.99;100.00;102086.97;4986936;28;45230;-78
2022/03/14 07:50:44;;;;;;;;;6.75;6.25;;;;;8.93;100.00;102079.09;4985148;28;45374;-79
2022/03/14 07:53:09;;;;;;;;;13.50;10.00;;;;;8.89;100.00;102085.56;4988964;28;45342;-77
2022/03/14 07:55:35;;;;;;;;;10.00;5.00;;;;;8.83;100.00;102080.41;4979732;28;45465;-80
2022/03/14 07:58:00;;;;;;;;;12.75;9.00;;;;;8.99;100.00;102115.94;4987811;28;45673;-80
2022/03/14 08:00:26;;;;;;;;;5.00;5.00;;;;;8.67;100.00;102060.22;4986990;28;45223;-80
2022/03/14 08:02:51;;;;;;;;;10.50;8.75;;;;;8.00;100.00;101952.50;4982782;28;45507;-79
2022/03/14 08:05:18;;;;;;;;;8.00;6.75;;;;;8.67;100.00;102061.13;4985439;28;45473;-78
2022/03/14 08:07:45;;;;;;;;;10.00;4.75;;;;;8.79;100.00;102074.19;4982424;28;45331;-80
2022/03/14 08:10:12;;;;;;;;;6.25;6.25;;;;;8.78;100.00;102055.28;4979178;28;45556;-77
2022/03/14 08:12:51;;;;;;;;;8.50;8.50;;;;;8.57;100.00;102027.16;4985724;28;46015;-79
2022/03/14 08:15:32;;;;;;;;;9.25;8.25;;;;;9.12;100.00;102119.94;4989660;28;45497;-79
2022/03/14 08:18:00;;;;;;;;;9.75;8.00;;;;;8.91;100.00;102080.09;4988862;28;45185;-78
2022/03/14 08:20:26;;;;;;;;;5.50;4.75;;;;;9.03;100.00;102102.19;4988209;28;45511;-78
2022/03/14 08:22:53;;;;;;;;;10.25;8.25;;;;;8.95;100.00;102098.91;4994445;28;45194;-78
2022/03/14 08:25:19;;;;;;;;;5.75;5.25;;;;;9.23;100.00;102138.53;4980897;28;45779;-77
2022/03/14 08:27:45;;;;;;;;;8.25;8.00;;;;;9.03;100.00;102096.78;4979476;28;47631;-77
2022/03/14 08:30:11;;;;;;;;;12.00;8.50;;;;;9.26;100.00;102146.53;4972381;28;45549;-76
2022/03/14 08:32:39;;;;;;;;;10.00;7.50;;;;;9.14;100.00;102118.06;4982807;28;45185;-78
2022/03/14 08:35:08;;;;;;;;;6.00;6.00;;;;;9.31;100.00;102150.84;4980483;28;45452;-76
2022/03/14 08:37:39;;;;;;;;;11.00;10.00;;;;;9.33;100.00;102148.97;4987813;28;45074;-77
2022/03/14 08:40:08;;;;;;;;;11.75;8.25;;;;;9.03;100.00;102096.78;4977749;28;45286;-75
2022/03/14 08:42:34;;;;;;;;;9.00;7.50;;;;;9.17;100.00;102117.03;4982456;28;45154;-78
2022/03/14 08:45:01;;;;;;;;;4.50;4.50;;;;;9.06;100.00;102103.91;4980633;28;45428;-77
2022/03/14 08:47:26;;;;;;;;;10.00;9.00;;;;;9.46;100.00;102162.91;4977975;28;45150;-77
2022/03/14 08:49:52;;;;;;;;;11.25;10.50;;;;;9.50;100.00;102163.69;4976217;28;45622;-77
2022/03/14 08:52:17;;;;;;;;;8.25;6.75;;;;;9.07;100.00;102090.28;4978286;28;45670;-78
2022/03/14 08:54:43;;;;;;;;;10.50;7.75;;;;;9.56;100.00;102172.47;4980722;28;45485;-76
2022/03/14 08:57:09;;;;;;;;;11.75;9.50;;;;;9.44;100.00;102148.53;4984297;28;45714;-75
2022/03/14 08:59:34;;;;;;;;;12.25;12.00;;;;;9.62;100.00;102174.03;4978713;28;45655;-77
2022/03/14 09:02:00;;;;;;;;;18.75;13.00;;;;;9.55;100.00;102156.25;4981382;28;45369;-75
2022/03/14 09:04:25;;;;;;;;;10.75;10.00;;;;;9.71;100.00;102178.22;4985009;28;45346;-76
2022/03/14 09:06:51;;;;;;;;;15.75;10.50;;;;;9.52;100.00;102146.38;4959373;28;45613;-76
2022/03/14 09:09:18;;;;;;;;;12.25;9.25;;;;;9.76;100.00;102181.63;4979091;28;45474;-75
2022/03/14 09:11:44;;;;;;;;;11.00;10.00;;;;;9.77;100.00;102181.56;4964350;28;48102;-75
2022/03/14 09:14:10;;;;;;;;;13.00;12.25;;;;;9.82;100.00;102181.38;4987375;28;45197;-75
2022/03/14 09:16:35;;;;;;;;;14.50;11.75;;;;;9.85;100.00;102183.97;4988913;28;45306;-76
2022/03/14 09:19:01;;;;;;;;;10.75;10.75;;;;;9.80;100.00;102176.03;4983831;28;45359;-76
2022/03/14 09:21:27;;;;;;;;;13.00;11.00;;;;;9.74;100.00;102159.97;4982759;28;45504;-77
2022/03/14 09:23:53;;;;;;;;;15.00;11.25;;;;;9.79;100.00;102160.69;4985060;28;45154;-76
2022/03/14 09:26:18;;;;;;;;;13.00;11.75;;;;;9.90;100.00;102179.25;4988628;28;45281;-76
2022/03/14 09:28:44;;;;;;;;;15.25;13.00;;;;;9.98;100.00;102195.22;4984268;28;45296;-76
2022/03/14 09:31:13;;;;;;;;;12.25;12.25;;;;;9.62;100.00;102131.47;4987987;28;45733;-77
2022/03/14 09:33:38;;;;;;;;;10.50;10.50;;;;;9.75;100.00;102150.00;4988505;28;45152;-75
2022/03/14 09:36:04;;;;;;;;;13.25;13.00;;;;;9.30;100.00;102072.19;4988666;28;45074;-79
2022/03/14 09:38:30;;;;;;;;;12.50;11.00;;;;;10.07;100.00;102201.16;4991230;28;45245;-77
2022/03/14 09:40:56;;;;;;;;;11.25;11.25;;;;;10.10;100.00;102205.59;4992406;28;45154;-78
2022/03/14 09:43:25;;;;;;;;;16.50;14.25;;;;;10.12;100.00;102207.28;4982887;28;45338;-77
2022/03/14 09:45:51;;;;;;;;;13.50;12.00;;;;;10.16;100.00;102207.16;4982429;28;45612;-78
2022/03/14 09:48:17;;;;;;;;;15.75;12.25;;;;;9.96;100.00;102162.69;4989805;28;45194;-78
2022/03/14 09:50:45;;;;;;;;;13.75;12.75;;;;;10.14;100.00;102191.81;4971321;28;45495;-75
2022/03/14 09:53:13;;;;;;;;;11.50;11.00;;;;;10.21;100.00;102194.25;4984257;28;45197;-75
2022/03/14 09:55:42;;;;;;;;;15.75;12.50;;;;;10.17;100.00;102184.47;4978903;28;45849;-79
2022/03/14 09:58:26;;;;;;;;;11.00;10.25;;;;;9.87;100.00;102136.78;4967591;28;45404;-79
2022/03/14 10:00:53;;;;;;;;;14.25;12.50;;;;;9.92;100.00;102128.44;4984303;28;45449;-75
2022/03/14 10:03:20;;;;;;;;;16.50;12.50;;;;;9.69;100.00;102091.41;4976924;28;45731;-76
2022/03/14 10:05:49;;;;;;;;;11.75;11.75;;;;;10.42;100.00;102206.97;4984444;28;45426;-76
2022/03/14 10:08:15;;;;;;;;;12.25;11.50;;;;;10.25;100.00;102179.63;4963656;28;45484;-79
2022/03/14 10:10:42;;;;;;;;;14.75;11.25;;;;;10.42;100.00;102212.41;4980481;28;45635;-79
2022/03/14 10:13:10;;;;;;;;;13.00;12.25;;;;;10.10;100.00;102149.41;4987194;28;44944;-76
2022/03/14 10:15:38;;;;;;;;;11.75;10.25;;;;;10.30;100.00;102172.16;4981549;28;45508;-79
2022/03/14 10:18:11;;;;;;;;;15.75;11.50;;;;;10.55;100.00;102200.06;4984985;28;45253;-77
2022/03/14 10:20:36;;;;;;;;;13.25;12.75;;;;;10.59;100.00;102215.28;4978626;28;45736;-79
2022/03/14 10:23:03;;;;;;;;;12.00;12.00;;;;;10.26;100.00;102155.09;4976040;28;45446;-78
2022/03/14 10:25:30;;;;;;;;;12.00;11.00;;;;;10.39;100.00;102161.78;4974879;28;45718;-80
2022/03/14 10:27:57;;;;;;;;;12.00;11.00;;;;;10.67;100.00;102212.22;4982838;28;45777;-81
2022/03/14 10:30:33;;;;;;;;;16.00;13.00;;;;;10.70;100.00;102217.53;4986123;28;45611;-77
2022/03/14 10:33:05;;;;;;;;;10.25;8.50;;;;;10.75;100.00;102225.50;4975809;28;45551;-77
2022/03/14 10:35:42;;;;;;;;;10.50;10.50;;;;;10.58;100.00;102183.59;4975473;28;45395;-78
2022/03/14 10:38:10;;;;;;;;;13.00;12.00;;;;;10.81;100.00;102217.94;4985911;28;45528;-79
2022/03/14 10:40:41;;;;;;;;;18.00;11.00;;;;;10.64;100.00;102191.50;4981330;28;45616;-80
2022/03/14 10:43:25;;;;;;;;;13.00;12.00;;;;;9.81;100.00;102060.09;4988483;28;45245;-77
2022/03/14 10:45:52;;;;;;;;;14.00;13.00;;;;;10.64;100.00;102185.16;4985511;28;45607;-78
2022/03/14 10:48:31;;;;;;;;;6.00;5.00;;;;;9.70;100.00;102022.56;4983936;28;45597;-78
2022/03/14 10:51:02;;;;;;;;;13.00;12.00;;;;;10.76;100.00;102200.06;4963870;28;47284;-78
2022/03/14 10:53:27;;;;;;;;;15.00;11.75;;;;;10.97;100.00;102219.97;4985985;28;45363;-78
2022/03/14 10:55:58;;;;;;;;;12.50;11.75;;;;;10.99;100.00;102227.09;4964883;28;45086;-77
2022/03/14 10:58:30;;;;;;;;;13.00;10.75;;;;;11.02;100.00;102218.81;4981013;28;45433;-78
2022/03/14 11:01:09;;;;;;;;;10.75;9.25;;;;;11.07;100.00;102224.03;4967935;28;47344;-77
2022/03/14 11:03:41;;;;;;;;;14.50;11.25;;;;;11.10;100.00;102221.16;4979159;28;45369;-78
2022/03/14 11:06:09;;;;;;;;;8.25;8.25;;;;;11.13;100.00;102223.75;4970399;28;45573;-78
2022/03/14 11:08:45;;;;;;;;;13.50;10.25;;;;;11.16;100.00;102220.91;4989421;28;45391;-76
2022/03/14 11:11:15;;;;;;;;;12.00;10.00;;;;;10.94;100.00;102180.16;4982727;28;46012;-75
2022/03/14 11:13:42;;;;;;;;;6.25;6.25;;;;;11.21;100.00;102223.44;4989799;28;45015;-79
2022/03/14 11:16:19;;;;;;;;;6.25;6.25;;;;;11.16;100.00;102215.47;4986006;28;45557;-76
2022/03/14 11:18:46;;;;;;;;;8.75;7.00;;;;;11.27;100.00;102220.41;4982458;28;45413;-78